Time;durP1;ratioP1;P1;durP2;ratioP2;P2;SDS_P1;SDS_P2;PMS_P1;PMS_P2;Temp;Humidity;BMP_temperature;BMP_pressure;BME280_temperature;BME280_humidity;BME280_pressure;Samples;Min_cycle;Max_cycle;Signal;HPM_P1;HPM_P2
2023/08/14 00:00:51;;;;;;;2.60;1.83;;;;;;;;;;5079581;28;20468;-74
2023/08/14 00:03:18;;;;;;;4.67;2.70;;;;;;;;;;5081748;28;20477;-73
2023/08/14 00:05:45;;;;;;;4.00;1.80;;;;;;;;;;5075426;28;20519;-74
2023/08/14 00:08:12;;;;;;;3.73;2.27;;;;;;;;;;5076278;28;20474;-73
2023/08/14 00:10:40;;;;;;;3.50;2.43;;;;;;;;;;5077165;28;20540;-74
2023/08/14 00:13:07;;;;;;;5.93;2.13;;;;;;;;;;5077599;28;20563;-74
2023/08/14 00:15:34;;;;;;;2.80;1.90;;;;;;;;;;5080589;28;20449;-74
2023/08/14 00:18:02;;;;;;;3.40;2.23;;;;;;;;;;5083715;28;20452;-74
2023/08/14 00:20:29;;;;;;;3.60;2.40;;;;;;;;;;5078597;28;20852;-74
2023/08/14 00:22:56;;;;;;;5.93;2.10;;;;;;;;;;5080396;28;20974;-74
2023/08/14 00:25:24;;;;;;;4.70;2.60;;;;;;;;;;5083024;28;20453;-74
2023/08/14 00:27:51;;;;;;;3.20;2.03;;;;;;;;;;5078628;28;20463;-74
2023/08/14 00:30:18;;;;;;;3.30;2.00;;;;;;;;;;5080539;28;20476;-74
2023/08/14 00:32:45;;;;;;;3.70;2.40;;;;;;;;;;5079168;28;20472;-73
2023/08/14 00:35:14;;;;;;;4.60;2.67;;;;;;;;;;5077402;28;20958;-74
2023/08/14 00:37:41;;;;;;;3.23;2.30;;;;;;;;;;5080549;28;20449;-74
2023/08/14 00:40:10;;;;;;;4.37;2.23;;;;;;;;;;5079360;28;20538;-73
2023/08/14 00:42:37;;;;;;;7.37;2.70;;;;;;;;;;5085335;28;20477;-74
2023/08/14 00:45:04;;;;;;;3.60;2.40;;;;;;;;;;5076063;28;20461;-74
2023/08/14 00:47:31;;;;;;;2.90;1.87;;;;;;;;;;5077014;28;20848;-73
2023/08/14 00:49:59;;;;;;;3.23;2.40;;;;;;;;;;5074912;28;20460;-73
2023/08/14 00:52:31;;;;;;;3.80;2.20;;;;;;;;;;5085919;28;20464;-74
2023/08/14 00:54:59;;;;;;;4.17;2.47;;;;;;;;;;5075902;28;20450;-74
2023/08/14 00:57:26;;;;;;;4.17;2.13;;;;;;;;;;5077539;28;20457;-74
2023/08/14 00:59:53;;;;;;;7.13;2.23;;;;;;;;;;5078125;28;20453;-74
2023/08/14 01:02:20;;;;;;;3.37;2.47;;;;;;;;;;5075518;28;20486;-74
2023/08/14 01:04:47;;;;;;;3.67;2.07;;;;;;;;;;5078075;28;20487;-74
2023/08/14 01:07:14;;;;;;;4.30;2.47;;;;;;;;;;5074163;28;20465;-74
2023/08/14 01:09:43;;;;;;;3.17;2.47;;;;;;;;;;5073610;28;21710;-74
2023/08/14 01:12:15;;;;;;;3.77;2.17;;;;;;;;;;5085916;28;20831;-74
2023/08/14 01:14:44;;;;;;;3.00;2.20;;;;;;;;;;5072971;28;20453;-74
2023/08/14 01:17:15;;;;;;;3.50;2.33;;;;;;;;;;5077398;28;20445;-74
2023/08/14 01:19:43;;;;;;;3.50;2.30;;;;;;;;;;5074479;28;20792;-74
2023/08/14 01:22:12;;;;;;;4.37;2.57;;;;;;;;;;5077248;28;20486;-74
2023/08/14 01:24:47;;;;;;;5.00;1.70;;;;;;;;;;5074352;28;20464;-73
2023/08/14 01:27:17;;;;;;;3.33;2.27;;;;;;;;;;5076315;28;20441;-73
2023/08/14 01:29:45;;;;;;;3.67;2.70;;;;;;;;;;5075998;28;20807;-73
2023/08/14 01:32:12;;;;;;;4.03;2.30;;;;;;;;;;5077084;28;20477;-74
2023/08/14 01:34:39;;;;;;;3.63;1.83;;;;;;;;;;5076563;28;20821;-73
2023/08/14 01:37:13;;;;;;;3.67;2.30;;;;;;;;;;5079136;28;20456;-73
2023/08/14 01:39:42;;;;;;;3.20;2.10;;;;;;;;;;5074080;28;20841;-73
2023/08/14 01:42:14;;;;;;;7.23;2.70;;;;;;;;;;5074694;28;20481;-73
2023/08/14 01:44:44;;;;;;;3.30;2.40;;;;;;;;;;5079376;28;20463;-73
2023/08/14 01:47:16;;;;;;;5.43;2.60;;;;;;;;;;5077139;28;20454;-73
2023/08/14 01:49:43;;;;;;;3.60;2.23;;;;;;;;;;5079502;28;20462;-74
2023/08/14 01:52:10;;;;;;;6.03;2.90;;;;;;;;;;5077845;28;20469;-73
2023/08/14 01:54:37;;;;;;;5.37;2.40;;;;;;;;;;5079105;28;20941;-73
2023/08/14 01:57:04;;;;;;;4.93;2.80;;;;;;;;;;5074723;28;20483;-73
2023/08/14 01:59:36;;;;;;;11.13;3.33;;;;;;;;;;5074045;28;20456;-73
2023/08/14 02:02:04;;;;;;;5.43;2.70;;;;;;;;;;5069766;28;20480;-73
2023/08/14 02:04:31;;;;;;;4.90;2.70;;;;;;;;;;5082914;28;20457;-73
2023/08/14 02:06:58;;;;;;;3.50;2.40;;;;;;;;;;5200742;22;20957;-72
2023/08/14 02:09:25;;;;;;;3.90;2.80;;;;;;;;;;5089565;28;20954;-71
2023/08/14 02:11:52;;;;;;;3.37;2.30;;;;;;;;;;5068166;28;20503;-72
2023/08/14 02:14:19;;;;;;;4.20;2.57;;;;;;;;;;5089700;28;20460;-72
2023/08/14 02:16:47;;;;;;;4.03;2.20;;;;;;;;;;5085864;28;20457;-72
2023/08/14 02:19:15;;;;;;;3.20;2.10;;;;;;;;;;5090692;28;20780;-77
2023/08/14 02:21:42;;;;;;;3.13;1.90;;;;;;;;;;5085629;28;20575;-72
2023/08/14 02:24:10;;;;;;;2.60;1.43;;;;;;;;;;5089728;28;20449;-72
2023/08/14 02:26:37;;;;;;;3.60;2.30;;;;;;;;;;5088030;28;20460;-72
2023/08/14 02:29:04;;;;;;;4.23;2.40;;;;;;;;;;5086370;28;20456;-72
2023/08/14 02:31:31;;;;;;;3.10;2.00;;;;;;;;;;5088603;28;20970;-73
2023/08/14 02:33:59;;;;;;;3.63;2.47;;;;;;;;;;5089526;28;20448;-73
2023/08/14 02:36:27;;;;;;;3.07;2.10;;;;;;;;;;5085223;28;20496;-73
2023/08/14 02:38:55;;;;;;;4.87;2.20;;;;;;;;;;5088126;28;20950;-72
2023/08/14 02:41:22;;;;;;;3.60;2.40;;;;;;;;;;5086229;28;20865;-72
2023/08/14 02:43:49;;;;;;;4.20;2.70;;;;;;;;;;5085759;28;20452;-73
2023/08/14 02:46:16;;;;;;;2.70;1.33;;;;;;;;;;5085243;28;20453;-72
2023/08/14 02:48:45;;;;;;;3.50;2.20;;;;;;;;;;5082979;28;20825;-72
2023/08/14 02:51:12;;;;;;;7.07;1.70;;;;;;;;;;5089517;28;20460;-72
2023/08/14 02:53:40;;;;;;;3.50;1.60;;;;;;;;;;5086920;28;20791;-72
2023/08/14 02:56:08;;;;;;;2.60;1.40;;;;;;;;;;5088551;28;20471;-72
2023/08/14 02:58:35;;;;;;;3.10;1.57;;;;;;;;;;5088602;28;20803;-72
2023/08/14 03:01:04;;;;;;;3.40;1.73;;;;;;;;;;5085801;28;20584;-72
2023/08/14 03:03:31;;;;;;;3.00;1.63;;;;;;;;;;5064624;28;20559;-74
2023/08/14 03:05:59;;;;;;;3.30;1.60;;;;;;;;;;5088047;28;20456;-72
2023/08/14 03:08:27;;;;;;;5.63;1.37;;;;;;;;;;5085124;28;20490;-72
2023/08/14 03:10:55;;;;;;;2.97;2.10;;;;;;;;;;5086107;28;20543;-72
2023/08/14 03:13:21;;;;;;;3.30;2.10;;;;;;;;;;5090094;28;20558;-72
2023/08/14 03:15:48;;;;;;;3.17;1.83;;;;;;;;;;5089074;28;20445;-72
2023/08/14 03:18:15;;;;;;;2.70;1.80;;;;;;;;;;5090714;28;20779;-72
2023/08/14 03:20:43;;;;;;;2.80;1.47;;;;;;;;;;5089980;28;20555;-73
2023/08/14 03:23:10;;;;;;;2.97;1.83;;;;;;;;;;5087501;28;20516;-73
2023/08/14 03:25:37;;;;;;;3.37;1.87;;;;;;;;;;5085703;28;20483;-73
2023/08/14 03:28:06;;;;;;;3.10;2.27;;;;;;;;;;5089778;28;20432;-73
2023/08/14 03:30:34;;;;;;;4.50;1.97;;;;;;;;;;5087448;28;21046;-73
2023/08/14 03:33:01;;;;;;;3.30;2.30;;;;;;;;;;5090541;28;20468;-73
2023/08/14 03:35:29;;;;;;;4.03;2.87;;;;;;;;;;5071200;28;20829;-73
2023/08/14 03:37:56;;;;;;;3.57;2.07;;;;;;;;;;5089121;28;20464;-72
2023/08/14 03:40:23;;;;;;;4.20;2.03;;;;;;;;;;5083620;28;20480;-72
2023/08/14 03:42:50;;;;;;;4.10;2.20;;;;;;;;;;5087585;28;20476;-72
2023/08/14 03:45:19;;;;;;;4.63;2.10;;;;;;;;;;5087699;28;20807;-72
2023/08/14 03:47:46;;;;;;;4.60;2.23;;;;;;;;;;5087744;28;20559;-71
2023/08/14 03:50:13;;;;;;;5.10;3.07;;;;;;;;;;5089615;28;20981;-72
2023/08/14 03:52:41;;;;;;;3.60;2.50;;;;;;;;;;5069138;28;20550;-71
2023/08/14 03:55:08;;;;;;;2.53;1.60;;;;;;;;;;5087690;28;20448;-72
2023/08/14 03:57:35;;;;;;;4.17;2.10;;;;;;;;;;5088820;28;20822;-72
2023/08/14 04:00:02;;;;;;;3.40;2.20;;;;;;;;;;5088113;28;20471;-72
2023/08/14 04:02:30;;;;;;;3.20;2.10;;;;;;;;;;5082954;28;20522;-72
2023/08/14 04:04:58;;;;;;;3.10;1.90;;;;;;;;;;5084496;28;20468;-72
2023/08/14 04:07:25;;;;;;;3.33;2.53;;;;;;;;;;5089338;28;20842;-72
2023/08/14 04:09:52;;;;;;;3.60;2.50;;;;;;;;;;5086913;28;20468;-72
2023/08/14 04:12:19;;;;;;;2.90;1.90;;;;;;;;;;5071393;28;20464;-72
2023/08/14 04:14:47;;;;;;;4.47;2.20;;;;;;;;;;5088783;28;20456;-72
2023/08/14 04:17:14;;;;;;;3.43;2.30;;;;;;;;;;5076979;28;20465;-72
2023/08/14 04:19:42;;;;;;;2.63;1.60;;;;;;;;;;5086997;28;20429;-72
2023/08/14 04:22:09;;;;;;;2.70;1.67;;;;;;;;;;5088385;28;20540;-72
2023/08/14 04:24:36;;;;;;;4.00;2.07;;;;;;;;;;5070132;28;20448;-71
2023/08/14 04:27:04;;;;;;;3.27;2.20;;;;;;;;;;5089090;28;20448;-72
2023/08/14 04:29:31;;;;;;;3.53;1.70;;;;;;;;;;5091595;28;20464;-72
2023/08/14 04:31:58;;;;;;;3.57;1.80;;;;;;;;;;5090949;28;21001;-71
2023/08/14 04:34:25;;;;;;;2.80;1.70;;;;;;;;;;5094453;28;20946;-72
2023/08/14 04:36:53;;;;;;;3.07;1.90;;;;;;;;;;5088623;28;20479;-72
2023/08/14 04:39:20;;;;;;;3.00;1.83;;;;;;;;;;5089148;28;20452;-72
2023/08/14 04:41:47;;;;;;;2.63;1.60;;;;;;;;;;5091912;28;20491;-71
2023/08/14 04:44:14;;;;;;;3.10;1.83;;;;;;;;;;5092618;28;20452;-72
2023/08/14 04:46:42;;;;;;;3.50;2.00;;;;;;;;;;5091875;28;20475;-71
2023/08/14 04:49:09;;;;;;;2.77;1.53;;;;;;;;;;5091402;28;20495;-72
2023/08/14 04:51:36;;;;;;;3.50;1.60;;;;;;;;;;5093785;28;21040;-71
2023/08/14 04:54:05;;;;;;;2.87;1.67;;;;;;;;;;5093188;28;20455;-71
2023/08/14 04:56:32;;;;;;;5.10;2.30;;;;;;;;;;5089184;28;20547;-71
2023/08/14 04:58:59;;;;;;;4.93;2.13;;;;;;;;;;5089445;28;20461;-71
2023/08/14 05:01:26;;;;;;;3.50;2.10;;;;;;;;;;5090391;28;20476;-71
2023/08/14 05:03:53;;;;;;;3.60;2.10;;;;;;;;;;5094179;28;20448;-73
2023/08/14 05:06:20;;;;;;;3.40;1.57;;;;;;;;;;5093690;28;20433;-72
2023/08/14 05:08:47;;;;;;;3.67;1.83;;;;;;;;;;5088858;28;20844;-70
2023/08/14 05:11:16;;;;;;;4.17;2.40;;;;;;;;;;5090609;28;20539;-74
2023/08/14 05:13:44;;;;;;;4.40;2.13;;;;;;;;;;5090296;28;20944;-73
2023/08/14 05:16:11;;;;;;;4.00;1.90;;;;;;;;;;5089850;28;20597;-71
2023/08/14 05:18:39;;;;;;;3.90;1.80;;;;;;;;;;5091039;28;20491;-74
2023/08/14 05:21:06;;;;;;;3.13;1.57;;;;;;;;;;5074969;28;20432;-74
2023/08/14 05:23:33;;;;;;;2.60;1.70;;;;;;;;;;5093986;28;20594;-71
2023/08/14 05:26:00;;;;;;;3.00;1.63;;;;;;;;;;5088953;28;20544;-71
2023/08/14 05:28:29;;;;;;;2.90;1.60;;;;;;;;;;5093156;28;20448;-70
2023/08/14 05:30:56;;;;;;;2.33;1.27;;;;;;;;;;5090756;28;20475;-71
2023/08/14 05:33:23;;;;;;;3.30;1.40;;;;;;;;;;5093494;28;20472;-69
2023/08/14 05:35:50;;;;;;;2.77;1.37;;;;;;;;;;5092478;28;20445;-70
2023/08/14 05:38:17;;;;;;;3.47;1.80;;;;;;;;;;5089879;28;20511;-69
2023/08/14 05:40:44;;;;;;;3.10;1.67;;;;;;;;;;5089924;28;20479;-69
2023/08/14 05:43:12;;;;;;;2.40;1.40;;;;;;;;;;5092925;28;20483;-68
2023/08/14 05:45:44;;;;;;;2.87;1.53;;;;;;;;;;5073604;28;20490;-68
2023/08/14 05:48:12;;;;;;;2.83;1.60;;;;;;;;;;5092611;28;20448;-68
2023/08/14 05:50:40;;;;;;;3.10;1.70;;;;;;;;;;5092222;28;20448;-70
2023/08/14 05:53:07;;;;;;;2.83;1.57;;;;;;;;;;5091752;28;20476;-69
2023/08/14 05:55:35;;;;;;;3.10;1.40;;;;;;;;;;5073652;28;20444;-70
2023/08/14 05:58:03;;;;;;;2.57;1.27;;;;;;;;;;5093056;28;20458;-69
2023/08/14 06:00:31;;;;;;;2.70;1.53;;;;;;;;;;5091756;28;20878;-70
2023/08/14 06:02:59;;;;;;;3.20;1.30;;;;;;;;;;5089865;28;20565;-70
2023/08/14 06:05:27;;;;;;;5.13;2.17;;;;;;;;;;5096509;28;20456;-70
2023/08/14 06:07:54;;;;;;;4.20;1.93;;;;;;;;;;5092039;28;20472;-69
2023/08/14 06:10:22;;;;;;;3.13;1.87;;;;;;;;;;5091122;28;20483;-71
2023/08/14 06:12:49;;;;;;;4.30;2.20;;;;;;;;;;5091369;28;20448;-70
2023/08/14 06:15:17;;;;;;;2.93;1.90;;;;;;;;;;5091290;28;21998;-70
2023/08/14 06:17:44;;;;;;;3.10;1.83;;;;;;;;;;5091831;28;20456;-70
2023/08/14 06:20:14;;;;;;;3.20;1.73;;;;;;;;;;5092802;28;20448;-70
2023/08/14 06:22:41;;;;;;;3.50;2.00;;;;;;;;;;5089166;28;20480;-70
2023/08/14 06:25:08;;;;;;;2.93;1.60;;;;;;;;;;5084163;28;20957;-70
2023/08/14 06:27:36;;;;;;;4.90;1.83;;;;;;;;;;5091566;28;20498;-70
2023/08/14 06:30:03;;;;;;;4.20;1.90;;;;;;;;;;5092332;28;20918;-71
2023/08/14 06:32:30;;;;;;;3.20;2.00;;;;;;;;;;5086210;28;20531;-70
2023/08/14 06:34:58;;;;;;;3.70;1.83;;;;;;;;;;5092367;28;20428;-70
2023/08/14 06:37:26;;;;;;;3.50;2.00;;;;;;;;;;5092788;28;20482;-70
2023/08/14 06:39:54;;;;;;;4.87;1.93;;;;;;;;;;5091627;28;20456;-70
2023/08/14 06:42:21;;;;;;;3.10;2.00;;;;;;;;;;5086763;28;20480;-71
2023/08/14 06:44:55;;;;;;;2.70;1.60;;;;;;;;;;5089147;28;20539;-70
2023/08/14 06:47:22;;;;;;;3.70;1.97;;;;;;;;;;5087576;28;20447;-70
2023/08/14 06:49:49;;;;;;;2.93;1.63;;;;;;;;;;5088785;28;20840;-67
2023/08/14 06:52:17;;;;;;;2.67;1.50;;;;;;;;;;5087803;28;20473;-67
2023/08/14 06:54:45;;;;;;;3.27;1.60;;;;;;;;;;5089237;28;20491;-69
2023/08/14 06:57:12;;;;;;;2.23;1.47;;;;;;;;;;5089131;28;20458;-69
2023/08/14 06:59:39;;;;;;;3.50;1.73;;;;;;;;;;5087284;28;20456;-69
2023/08/14 07:02:07;;;;;;;3.47;1.83;;;;;;;;;;5084941;28;20998;-67
2023/08/14 07:04:34;;;;;;;3.57;1.80;;;;;;;;;;5090890;28;20499;-69
2023/08/14 07:07:01;;;;;;;2.73;1.97;;;;;;;;;;5089848;28;20990;-68
2023/08/14 07:09:28;;;;;;;2.80;1.67;;;;;;;;;;5073018;28;20483;-68
2023/08/14 07:11:57;;;;;;;3.63;1.80;;;;;;;;;;5091516;28;20487;-69
2023/08/14 07:14:24;;;;;;;5.50;2.13;;;;;;;;;;5093214;28;20429;-69
2023/08/14 07:16:51;;;;;;;3.00;1.80;;;;;;;;;;5090643;28;20456;-68
2023/08/14 07:19:17;;;;;;;4.10;2.00;;;;;;;;;;5090264;28;20451;-68
2023/08/14 07:21:45;;;;;;;3.17;2.07;;;;;;;;;;5092847;28;20482;-68
2023/08/14 07:24:13;;;;;;;4.50;2.27;;;;;;;;;;5090652;28;20469;-68
2023/08/14 07:26:40;;;;;;;3.30;1.60;;;;;;;;;;5090465;28;20451;-69
2023/08/14 07:29:09;;;;;;;2.80;1.70;;;;;;;;;;5103021;28;20860;-68
2023/08/14 07:31:36;;;;;;;3.80;2.10;;;;;;;;;;5097455;28;21735;-68
2023/08/14 07:34:03;;;;;;;3.00;1.80;;;;;;;;;;5097931;28;20975;-69
2023/08/14 07:36:30;;;;;;;2.73;1.50;;;;;;;;;;5101333;28;20448;-70
2023/08/14 07:38:57;;;;;;;6.00;2.17;;;;;;;;;;5089384;28;20840;-70
2023/08/14 07:41:25;;;;;;;2.83;1.60;;;;;;;;;;5093418;28;20553;-70
2023/08/14 07:43:52;;;;;;;2.70;1.80;;;;;;;;;;5091102;28;20559;-70
2023/08/14 07:46:20;;;;;;;2.30;1.60;;;;;;;;;;5091869;28;20498;-69
2023/08/14 07:48:48;;;;;;;2.60;1.57;;;;;;;;;;5093384;28;20458;-70
2023/08/14 07:51:15;;;;;;;2.60;1.47;;;;;;;;;;5092599;28;20435;-67
2023/08/14 07:53:42;;;;;;;3.33;1.97;;;;;;;;;;5093661;28;20429;-69
2023/08/14 07:56:09;;;;;;;2.30;1.20;;;;;;;;;;5090020;28;20455;-68
2023/08/14 07:58:37;;;;;;;2.80;1.90;;;;;;;;;;5095769;28;20436;-67
2023/08/14 08:01:04;;;;;;;2.60;1.77;;;;;;;;;;5095069;28;20444;-67
2023/08/14 08:03:32;;;;;;;4.33;1.90;;;;;;;;;;5095938;28;20840;-67
2023/08/14 08:06:00;;;;;;;3.60;1.93;;;;;;;;;;5095708;28;20543;-67
2023/08/14 08:08:27;;;;;;;3.20;1.87;;;;;;;;;;5096074;28;20509;-69
2023/08/14 08:10:54;;;;;;;2.90;1.90;;;;;;;;;;5096253;28;20451;-68
2023/08/14 08:13:21;;;;;;;5.33;1.83;;;;;;;;;;5095178;28;20484;-68
2023/08/14 08:15:48;;;;;;;3.23;1.80;;;;;;;;;;5094609;28;20780;-68
2023/08/14 08:18:15;;;;;;;2.33;1.50;;;;;;;;;;5095405;28;20501;-68
2023/08/14 08:20:44;;;;;;;4.03;1.80;;;;;;;;;;5096192;28;20437;-69
2023/08/14 08:23:11;;;;;;;2.80;1.40;;;;;;;;;;5095642;28;20472;-69
2023/08/14 08:25:38;;;;;;;2.30;1.70;;;;;;;;;;5094715;28;20463;-69
2023/08/14 08:28:05;;;;;;;2.20;1.53;;;;;;;;;;5075050;28;20482;-68
2023/08/14 08:30:33;;;;;;;2.30;1.57;;;;;;;;;;5095277;28;20461;-67
2023/08/14 08:33:00;;;;;;;2.50;1.10;;;;;;;;;;5095035;28;20833;-67
2023/08/14 08:35:27;;;;;;;3.13;1.80;;;;;;;;;;5095032;28;20525;-68
2023/08/14 08:37:55;;;;;;;2.10;1.03;;;;;;;;;;5092123;28;20451;-68
2023/08/14 08:40:23;;;;;;;2.43;1.37;;;;;;;;;;5095482;28;20437;-67
2023/08/14 08:42:50;;;;;;;2.77;1.47;;;;;;;;;;5095340;28;20456;-66
2023/08/14 08:45:18;;;;;;;2.50;1.50;;;;;;;;;;5095183;28;20429;-69
2023/08/14 08:47:48;;;;;;;3.23;1.63;;;;;;;;;;5092451;28;20944;-69
2023/08/14 08:50:15;;;;;;;2.43;1.83;;;;;;;;;;5095089;28;20449;-67
2023/08/14 08:52:42;;;;;;;3.43;1.90;;;;;;;;;;5093938;28;20468;-67
2023/08/14 08:55:11;;;;;;;2.70;1.80;;;;;;;;;;5094455;28;20765;-69
2023/08/14 08:57:38;;;;;;;3.13;1.87;;;;;;;;;;5091449;28;20437;-68
2023/08/14 09:00:06;;;;;;;2.77;1.83;;;;;;;;;;5095192;28;20437;-67
2023/08/14 09:02:34;;;;;;;4.10;2.07;;;;;;;;;;5094969;28;20914;-67
2023/08/14 09:05:01;;;;;;;2.83;1.70;;;;;;;;;;5096220;28;20479;-68
2023/08/14 09:07:28;;;;;;;2.57;1.60;;;;;;;;;;5095226;28;20789;-68
2023/08/14 09:09:55;;;;;;;3.80;2.20;;;;;;;;;;5093530;28;20447;-67
2023/08/14 09:12:24;;;;;;;2.57;1.47;;;;;;;;;;5091231;28;20929;-67
2023/08/14 09:15:03;;;;;;;2.90;2.00;;;;;;;;;;5094711;28;20436;-67
2023/08/14 09:17:31;;;;;;;2.63;1.73;;;;;;;;;;5075090;28;20440;-67
2023/08/14 09:19:58;;;;;;;3.10;2.30;;;;;;;;;;5094951;28;20436;-68
2023/08/14 09:22:27;;;;;;;3.00;1.83;;;;;;;;;;5094416;28;20986;-68
2023/08/14 09:24:54;;;;;;;2.73;2.03;;;;;;;;;;5093596;28;20479;-68
2023/08/14 09:27:23;;;;;;;3.17;1.70;;;;;;;;;;5095222;28;20440;-68
2023/08/14 09:29:52;;;;;;;3.50;2.17;;;;;;;;;;5095024;28;20464;-68
2023/08/14 09:32:22;;;;;;;2.63;2.00;;;;;;;;;;5089733;28;20582;-68
2023/08/14 09:34:49;;;;;;;2.43;1.67;;;;;;;;;;5094593;28;20551;-68
2023/08/14 09:37:20;;;;;;;3.60;1.67;;;;;;;;;;5094433;28;20826;-68
2023/08/14 09:39:47;;;;;;;2.90;2.23;;;;;;;;;;5094129;28;20444;-68
2023/08/14 09:42:14;;;;;;;3.80;1.80;;;;;;;;;;5093167;28;20566;-68
2023/08/14 09:44:43;;;;;;;3.30;1.70;;;;;;;;;;5094171;28;20463;-68
2023/08/14 09:47:10;;;;;;;3.40;2.67;;;;;;;;;;5075305;28;20456;-68
2023/08/14 09:49:40;;;;;;;3.63;2.50;;;;;;;;;;5094362;28;20440;-68
2023/08/14 09:52:07;;;;;;;2.90;1.87;;;;;;;;;;5091916;28;20472;-68
2023/08/14 09:54:35;;;;;;;3.17;2.20;;;;;;;;;;5094432;28;20432;-68
2023/08/14 09:57:05;;;;;;;3.30;2.37;;;;;;;;;;5092594;28;20428;-68
2023/08/14 09:59:34;;;;;;;3.10;2.33;;;;;;;;;;5093878;28;20554;-68
2023/08/14 10:02:04;;;;;;;2.87;2.37;;;;;;;;;;5092994;28;20476;-69
2023/08/14 10:04:32;;;;;;;2.93;2.10;;;;;;;;;;5091790;28;20486;-68
2023/08/14 10:07:00;;;;;;;2.70;2.23;;;;;;;;;;5092000;28;20464;-68
2023/08/14 10:09:29;;;;;;;3.00;1.90;;;;;;;;;;5092783;28;20489;-68
2023/08/14 10:11:57;;;;;;;2.90;1.70;;;;;;;;;;5092964;28;20479;-69
2023/08/14 10:14:25;;;;;;;3.13;1.90;;;;;;;;;;5094180;28;20523;-68
2023/08/14 10:16:54;;;;;;;3.93;1.70;;;;;;;;;;5092792;28;20462;-68
2023/08/14 10:19:25;;;;;;;2.70;2.03;;;;;;;;;;5092166;28;20428;-69
2023/08/14 10:21:54;;;;;;;4.60;2.23;;;;;;;;;;5092253;28;20572;-68
2023/08/14 10:24:22;;;;;;;3.20;2.30;;;;;;;;;;5093549;28;20213;-69
2023/08/14 10:26:50;;;;;;;3.17;2.20;;;;;;;;;;5092092;28;20440;-68
2023/08/14 10:29:18;;;;;;;3.50;2.23;;;;;;;;;;5094273;28;20194;-68
2023/08/14 10:31:46;;;;;;;3.30;2.70;;;;;;;;;;5092281;28;20224;-68
2023/08/14 10:34:14;;;;;;;5.10;2.27;;;;;;;;;;5092925;28;20193;-68
2023/08/14 10:36:42;;;;;;;3.47;2.20;;;;;;;;;;5093919;28;20194;-69
2023/08/14 10:39:10;;;;;;;2.70;2.17;;;;;;;;;;5093485;28;20573;-68
2023/08/14 10:41:38;;;;;;;2.73;1.90;;;;;;;;;;5091285;28;20210;-69
2023/08/14 10:44:06;;;;;;;4.30;2.40;;;;;;;;;;5092838;28;20209;-69
2023/08/14 10:46:38;;;;;;;4.10;2.57;;;;;;;;;;5093366;28;20201;-69
2023/08/14 10:49:05;;;;;;;3.65;2.50;;;;;;;;;;5092866;28;20240;-69
2023/08/14 10:51:33;;;;;;;2.80;2.13;;;;;;;;;;5092765;28;20217;-68
2023/08/14 10:54:09;;;;;;;4.07;2.20;;;;;;;;;;5093436;28;20194;-69
2023/08/14 10:56:47;;;;;;;3.47;2.42;;;;;;;;;;5092618;28;20185;-69
2023/08/14 10:59:21;;;;;;;3.15;2.60;;;;;;;;;;5091555;28;20247;-69
2023/08/14 11:01:53;;;;;;;3.10;2.80;;;;;;;;;;5090848;28;20642;-69
2023/08/14 11:04:20;;;;;;;3.25;2.55;;;;;;;;;;5092024;28;20213;-69
2023/08/14 11:07:02;;;;;;;3.00;2.15;;;;;;;;;;5092815;28;20194;-69
2023/08/14 11:09:33;;;;;;;3.30;2.72;;;;;;;;;;5090585;28;20206;-68
2023/08/14 11:12:03;;;;;;;4.68;2.88;;;;;;;;;;5092113;28;20224;-68
2023/08/14 11:14:30;;;;;;;3.75;2.42;;;;;;;;;;5092883;28;20182;-69
2023/08/14 11:16:57;;;;;;;5.93;2.67;;;;;;;;;;5089480;28;20696;-69
2023/08/14 11:19:25;;;;;;;3.17;2.28;;;;;;;;;;5092884;28;20202;-69
2023/08/14 11:21:53;;;;;;;3.13;2.42;;;;;;;;;;5092755;28;20217;-69
2023/08/14 11:24:20;;;;;;;4.00;3.00;;;;;;;;;;5091016;28;20217;-69
2023/08/14 11:26:49;;;;;;;4.13;2.92;;;;;;;;;;5093150;28;20197;-69
2023/08/14 11:29:16;;;;;;;3.13;2.45;;;;;;;;;;5091763;28;20201;-70
2023/08/14 11:31:44;;;;;;;2.58;2.00;;;;;;;;;;5092722;28;20726;-69
2023/08/14 11:34:12;;;;;;;3.88;2.40;;;;;;;;;;5093977;28;20717;-70
2023/08/14 11:36:41;;;;;;;2.80;2.13;;;;;;;;;;5100752;28;20198;-68
2023/08/14 11:39:08;;;;;;;4.03;2.08;;;;;;;;;;5102798;28;20190;-69
2023/08/14 11:41:37;;;;;;;3.00;2.28;;;;;;;;;;5105959;28;20235;-68
2023/08/14 11:44:06;;;;;;;3.42;2.35;;;;;;;;;;5096820;28;20217;-68
2023/08/14 11:46:33;;;;;;;2.83;2.10;;;;;;;;;;5088853;28;20201;-68
2023/08/14 11:49:02;;;;;;;3.60;2.72;;;;;;;;;;5092006;28;20242;-69
2023/08/14 11:51:30;;;;;;;3.88;2.40;;;;;;;;;;5093097;28;20224;-70
2023/08/14 11:53:57;;;;;;;2.92;2.22;;;;;;;;;;5090380;28;20198;-70
2023/08/14 11:56:25;;;;;;;2.85;2.38;;;;;;;;;;5092847;28;20197;-70
2023/08/14 11:58:53;;;;;;;2.78;2.53;;;;;;;;;;5073375;28;20234;-69
2023/08/14 12:01:22;;;;;;;3.33;2.55;;;;;;;;;;5091544;28;20194;-70
2023/08/14 12:03:49;;;;;;;4.43;2.70;;;;;;;;;;5092046;28;20236;-70
2023/08/14 12:06:18;;;;;;;3.08;2.50;;;;;;;;;;5091745;28;20660;-69
2023/08/14 12:08:45;;;;;;;4.15;2.72;;;;;;;;;;5092198;28;20206;-68
2023/08/14 12:11:17;;;;;;;2.45;1.90;;;;;;;;;;5091074;28;20221;-69
2023/08/14 12:13:49;;;;;;;4.20;2.10;;;;;;;;;;5070887;28;20186;-69
2023/08/14 12:16:16;;;;;;;3.30;2.42;;;;;;;;;;5090820;28;20194;-70
2023/08/14 12:18:46;;;;;;;4.35;2.42;;;;;;;;;;5091015;28;20194;-68
2023/08/14 12:21:13;;;;;;;3.80;3.13;;;;;;;;;;5091171;28;20190;-69
2023/08/14 12:23:45;;;;;;;2.78;2.35;;;;;;;;;;5090583;28;20222;-69
2023/08/14 12:26:12;;;;;;;3.80;3.28;;;;;;;;;;5091760;28;20182;-68
2023/08/14 12:28:40;;;;;;;3.50;3.03;;;;;;;;;;5092039;28;20201;-68
2023/08/14 12:31:07;;;;;;;3.00;2.28;;;;;;;;;;5087984;28;20192;-70
2023/08/14 12:33:35;;;;;;;2.88;2.20;;;;;;;;;;5089575;28;20198;-69
2023/08/14 12:36:03;;;;;;;3.00;2.63;;;;;;;;;;5090756;28;20206;-68
2023/08/14 12:38:33;;;;;;;3.40;2.35;;;;;;;;;;5091307;28;20197;-69
2023/08/14 12:41:00;;;;;;;4.82;2.63;;;;;;;;;;5089254;28;20190;-69
2023/08/14 12:43:27;;;;;;;2.97;2.10;;;;;;;;;;5092559;28;20214;-69
2023/08/14 12:45:54;;;;;;;2.60;1.80;;;;;;;;;;5094821;28;20221;-69
2023/08/14 12:48:21;;;;;;;4.03;2.50;;;;;;;;;;5093343;28;20652;-69
2023/08/14 12:50:48;;;;;;;3.83;2.37;;;;;;;;;;5095191;28;20202;-69
2023/08/14 12:53:17;;;;;;;4.00;2.07;;;;;;;;;;5094273;28;20222;-70
2023/08/14 12:55:45;;;;;;;3.63;2.13;;;;;;;;;;5094625;28;20239;-69
2023/08/14 12:58:12;;;;;;;2.53;1.90;;;;;;;;;;5094695;28;20247;-68
2023/08/14 13:00:39;;;;;;;2.60;2.00;;;;;;;;;;5095711;28;20523;-68
2023/08/14 13:03:07;;;;;;;3.10;2.07;;;;;;;;;;5094538;28;20566;-68
2023/08/14 13:05:34;;;;;;;3.70;2.00;;;;;;;;;;5095047;28;20213;-70
2023/08/14 13:08:02;;;;;;;3.50;1.93;;;;;;;;;;5072631;28;20501;-68
2023/08/14 13:10:30;;;;;;;4.33;1.93;;;;;;;;;;5094127;28;20436;-68
2023/08/14 13:12:58;;;;;;;2.57;2.07;;;;;;;;;;5093117;28;20472;-68
2023/08/14 13:15:25;;;;;;;4.10;2.17;;;;;;;;;;5092176;28;20477;-69
2023/08/14 13:17:52;;;;;;;3.70;2.20;;;;;;;;;;5093204;28;20468;-68
2023/08/14 13:20:20;;;;;;;2.50;1.93;;;;;;;;;;5093864;28;20206;-68
2023/08/14 13:22:47;;;;;;;2.63;1.90;;;;;;;;;;5092999;28;20220;-68
2023/08/14 13:25:17;;;;;;;2.58;1.80;;;;;;;;;;5094311;28;20602;-68
2023/08/14 13:27:46;;;;;;;3.00;2.00;;;;;;;;;;5092789;28;20664;-65
2023/08/14 13:30:13;;;;;;;4.60;2.80;;;;;;;;;;5092025;28;20280;-65
2023/08/14 13:32:40;;;;;;;3.80;2.10;;;;;;;;;;5093901;28;20344;-65
2023/08/14 13:35:11;;;;;;;5.35;2.80;;;;;;;;;;5094726;28;20657;-65
2023/08/14 13:37:38;;;;;;;2.63;2.30;;;;;;;;;;5094713;28;20592;-65
2023/08/14 13:40:06;;;;;;;3.90;2.90;;;;;;;;;;5094617;28;20193;-66
2023/08/14 13:42:33;;;;;;;2.95;1.95;;;;;;;;;;5094715;28;20234;-66
2023/08/14 13:45:03;;;;;;;2.90;2.08;;;;;;;;;;5093287;28;20225;-65
2023/08/14 13:47:30;;;;;;;2.70;1.95;;;;;;;;;;5093093;28;20198;-65
2023/08/14 13:49:57;;;;;;;2.40;1.80;;;;;;;;;;5093050;28;20200;-65
2023/08/14 13:52:24;;;;;;;2.85;1.67;;;;;;;;;;5093975;28;20217;-66
2023/08/14 13:54:52;;;;;;;3.47;2.42;;;;;;;;;;5092279;28;20186;-65
2023/08/14 13:57:19;;;;;;;3.03;2.08;;;;;;;;;;5093868;28;20189;-65
2023/08/14 13:59:46;;;;;;;3.00;2.33;;;;;;;;;;5094115;28;20919;-65
2023/08/14 14:02:15;;;;;;;2.58;2.10;;;;;;;;;;5088946;28;20301;-65
2023/08/14 14:04:42;;;;;;;3.33;2.30;;;;;;;;;;5091595;28;20210;-65
2023/08/14 14:07:09;;;;;;;3.72;2.17;;;;;;;;;;5093317;28;20197;-66
2023/08/14 14:09:36;;;;;;;2.80;2.25;;;;;;;;;;5090459;28;20289;-65
2023/08/14 14:12:03;;;;;;;4.70;2.17;;;;;;;;;;5094330;28;20225;-65
2023/08/14 14:14:30;;;;;;;7.50;2.17;;;;;;;;;;5093346;28;20198;-66
2023/08/14 14:16:58;;;;;;;3.00;2.08;;;;;;;;;;5093332;28;20205;-64
2023/08/14 14:19:28;;;;;;;3.20;2.53;;;;;;;;;;5090772;28;20623;-65
2023/08/14 14:21:56;;;;;;;3.05;2.35;;;;;;;;;;5092248;28;20244;-66
2023/08/14 14:24:23;;;;;;;3.10;1.90;;;;;;;;;;5092776;28;20193;-65
2023/08/14 14:26:50;;;;;;;2.65;2.08;;;;;;;;;;5092720;28;20607;-65
2023/08/14 14:29:18;;;;;;;2.20;1.70;;;;;;;;;;5092711;28;20190;-65
2023/08/14 14:31:45;;;;;;;4.30;2.25;;;;;;;;;;5092455;28;20214;-67
2023/08/14 14:34:12;;;;;;;3.53;2.22;;;;;;;;;;5091733;28;20197;-66
2023/08/14 14:36:41;;;;;;;3.42;2.60;;;;;;;;;;5092936;28;20185;-67
2023/08/14 14:39:09;;;;;;;6.75;2.42;;;;;;;;;;5093117;28;20198;-66
2023/08/14 14:41:37;;;;;;;2.70;1.98;;;;;;;;;;5092122;28;20300;-66
2023/08/14 14:44:05;;;;;;;2.72;2.40;;;;;;;;;;5092917;28;20209;-66
2023/08/14 14:46:32;;;;;;;3.40;2.30;;;;;;;;;;5089775;28;20312;-65